sensor_id;sensor_type;location;lat;lon;timestamp;pressure;altitude;pressure_sealevel;temperature;humidity
32324;BME280;25666;44.350;9.222;2023-02-17T00:00:04;103185.00;;;10.79;100.00
32324;BME280;25666;44.350;9.222;2023-02-17T00:02:30;103182.47;;;10.83;100.00
32324;BME280;25666;44.350;9.222;2023-02-17T00:04:55;103179.38;;;10.84;100.00
32324;BME280;25666;44.350;9.222;2023-02-17T00:07:21;103169.97;;;10.80;100.00
32324;BME280;25666;44.350;9.222;2023-02-17T00:09:46;103179.38;;;10.84;100.00
32324;BME280;25666;44.350;9.222;2023-02-17T00:12:12;103179.72;;;10.77;100.00
32324;BME280;25666;44.350;9.222;2023-02-17T00:14:38;103174.19;;;10.72;100.00
32324;BME280;25666;44.350;9.222;2023-02-17T00:17:04;103174.16;;;10.77;100.00
32324;BME280;25666;44.350;9.222;2023-02-17T00:19:30;103179.19;;;10.75;100.00
32324;BME280;25666;44.350;9.222;2023-02-17T00:21:58;103189.81;;;10.73;100.00
32324;BME280;25666;44.350;9.222;2023-02-17T00:24:25;103190.22;;;10.57;100.00
32324;BME280;25666;44.350;9.222;2023-02-17T00:26:52;103187.97;;;10.59;100.00
32324;BME280;25666;44.350;9.222;2023-02-17T00:29:18;103181.91;;;10.52;100.00
32324;BME280;25666;44.350;9.222;2023-02-17T00:31:44;103180.50;;;10.54;100.00
32324;BME280;25666;44.350;9.222;2023-02-17T00:34:10;103185.44;;;10.62;100.00
32324;BME280;25666;44.350;9.222;2023-02-17T00:36:36;103178.69;;;10.68;100.00
32324;BME280;25666;44.350;9.222;2023-02-17T00:39:02;103187.59;;;10.70;100.00
32324;BME280;25666;44.350;9.222;2023-02-17T00:41:28;103184.66;;;10.57;100.00
32324;BME280;25666;44.350;9.222;2023-02-17T00:43:56;103178.75;;;10.63;100.00
32324;BME280;25666;44.350;9.222;2023-02-17T00:46:22;103172.91;;;10.65;100.00
32324;BME280;25666;44.350;9.222;2023-02-17T00:48:51;103184.81;;;10.70;100.00
32324;BME280;25666;44.350;9.222;2023-02-17T00:51:17;103174.50;;;10.71;100.00
32324;BME280;25666;44.350;9.222;2023-02-17T00:53:43;103171.16;;;10.69;100.00
32324;BME280;25666;44.350;9.222;2023-02-17T00:56:09;103170.06;;;10.70;100.00
32324;BME280;25666;44.350;9.222;2023-02-17T00:58:36;103168.34;;;10.74;100.00
32324;BME280;25666;44.350;9.222;2023-02-17T01:01:02;103174.13;;;10.83;100.00
32324;BME280;25666;44.350;9.222;2023-02-17T01:03:27;103176.06;;;10.82;100.00
32324;BME280;25666;44.350;9.222;2023-02-17T01:05:54;103174.13;;;10.83;100.00
32324;BME280;25666;44.350;9.222;2023-02-17T01:08:20;103159.88;;;10.84;100.00
32324;BME280;25666;44.350;9.222;2023-02-17T01:10:47;103166.28;;;10.85;100.00
32324;BME280;25666;44.350;9.222;2023-02-17T01:13:15;103164.41;;;10.80;100.00
32324;BME280;25666;44.350;9.222;2023-02-17T01:15:52;103168.25;;;10.84;100.00
32324;BME280;25666;44.350;9.222;2023-02-17T01:18:21;103171.03;;;10.84;100.00
32324;BME280;25666;44.350;9.222;2023-02-17T01:20:49;103164.41;;;10.80;100.00
32324;BME280;25666;44.350;9.222;2023-02-17T01:23:14;103171.09;;;10.79;100.00
32324;BME280;25666;44.350;9.222;2023-02-17T01:25:43;103166.88;;;10.82;100.00
32324;BME280;25666;44.350;9.222;2023-02-17T01:28:15;103169.72;;;10.77;100.00
32324;BME280;25666;44.350;9.222;2023-02-17T01:30:41;103162.28;;;10.67;100.00
32324;BME280;25666;44.350;9.222;2023-02-17T01:33:07;103156.78;;;10.57;100.00
32324;BME280;25666;44.350;9.222;2023-02-17T01:35:33;103164.31;;;10.56;100.00
32324;BME280;25666;44.350;9.222;2023-02-17T01:37:59;103157.97;;;10.51;100.00
32324;BME280;25666;44.350;9.222;2023-02-17T01:40:25;103156.00;;;10.51;100.00
32324;BME280;25666;44.350;9.222;2023-02-17T01:42:50;103150.97;;;10.53;100.00
32324;BME280;25666;44.350;9.222;2023-02-17T01:47:50;103144.53;;;10.58;100.00
32324;BME280;25666;44.350;9.222;2023-02-17T01:50:19;103142.28;;;10.60;100.00
32324;BME280;25666;44.350;9.222;2023-02-17T01:52:45;103136.13;;;10.63;100.00
32324;BME280;25666;44.350;9.222;2023-02-17T01:55:14;103136.47;;;10.56;100.00
32324;BME280;25666;44.350;9.222;2023-02-17T01:57:43;103134.00;;;10.50;100.00
32324;BME280;25666;44.350;9.222;2023-02-17T02:00:11;103136.53;;;10.51;100.00
32324;BME280;25666;44.350;9.222;2023-02-17T02:02:38;103124.28;;;10.52;100.00
32324;BME280;25666;44.350;9.222;2023-02-17T02:05:06;103119.28;;;10.49;100.00
32324;BME280;25666;44.350;9.222;2023-02-17T02:07:35;103112.56;;;10.50;100.00
32324;BME280;25666;44.350;9.222;2023-02-17T02:10:03;103114.50;;;10.55;100.00
32324;BME280;25666;44.350;9.222;2023-02-17T02:12:32;103117.22;;;10.60;100.00
32324;BME280;25666;44.350;9.222;2023-02-17T02:15:05;103118.41;;;10.54;100.00
32324;BME280;25666;44.350;9.222;2023-02-17T02:17:57;103117.81;;;10.57;100.00
32324;BME280;25666;44.350;9.222;2023-02-17T02:26:48;103113.25;;;10.66;100.00
32324;BME280;25666;44.350;9.222;2023-02-17T02:38:05;103115.09;;;10.52;100.00
32324;BME280;25666;44.350;9.222;2023-02-17T02:40:32;103110.97;;;10.44;100.00
32324;BME280;25666;44.350;9.222;2023-02-17T02:43:00;103109.75;;;10.55;100.00
32324;BME280;25666;44.350;9.222;2023-02-17T02:45:26;103108.34;;;10.58;100.00
32324;BME280;25666;44.350;9.222;2023-02-17T02:47:54;103103.09;;;10.51;100.00
32324;BME280;25666;44.350;9.222;2023-02-17T02:50:52;103104.53;;;10.49;100.00
32324;BME280;25666;44.350;9.222;2023-02-17T03:04:20;103093.97;;;10.46;100.00
32324;BME280;25666;44.350;9.222;2023-02-17T03:07:39;103100.06;;;10.48;100.00
32324;BME280;25666;44.350;9.222;2023-02-17T03:09:52;103100.72;;;10.40;100.00
32324;BME280;25666;44.350;9.222;2023-02-17T03:12:19;103094.31;;;10.39;100.00
32324;BME280;25666;44.350;9.222;2023-02-17T03:14:47;103094.56;;;10.43;100.00
32324;BME280;25666;44.350;9.222;2023-02-17T03:17:15;103097.28;;;10.48;100.00
32324;BME280;25666;44.350;9.222;2023-02-17T03:19:41;103091.38;;;10.54;100.00
32324;BME280;25666;44.350;9.222;2023-02-17T03:22:30;103086.66;;;10.55;100.00
32324;BME280;25666;44.350;9.222;2023-02-17T03:24:57;103093.91;;;10.51;100.00
32324;BME280;25666;44.350;9.222;2023-02-17T03:27:26;103093.41;;;10.44;100.00
32324;BME280;25666;44.350;9.222;2023-02-17T03:29:51;103088.66;;;10.49;100.00
32324;BME280;25666;44.350;9.222;2023-02-17T03:32:18;103095.28;;;10.53;100.00
32324;BME280;25666;44.350;9.222;2023-02-17T03:34:44;103094.56;;;10.43;100.00
32324;BME280;25666;44.350;9.222;2023-02-17T03:37:09;103094.34;;;10.34;100.00
32324;BME280;25666;44.350;9.222;2023-02-17T03:39:35;103095.19;;;10.35;100.00
32324;BME280;25666;44.350;9.222;2023-02-17T03:42:01;103097.97;;;10.35;100.00
32324;BME280;25666;44.350;9.222;2023-02-17T03:44:27;103095.44;;;10.38;100.00
32324;BME280;25666;44.350;9.222;2023-02-17T03:46:52;103099.28;;;10.42;100.00
32324;BME280;25666;44.350;9.222;2023-02-17T03:49:18;103083.63;;;10.51;100.00
32324;BME280;25666;44.350;9.222;2023-02-17T03:51:43;103089.47;;;10.50;100.00
32324;BME280;25666;44.350;9.222;2023-02-17T03:54:09;103094.31;;;10.39;100.00
32324;BME280;25666;44.350;9.222;2023-02-17T03:56:34;103093.88;;;10.27;100.00
32324;BME280;25666;44.350;9.222;2023-02-17T03:59:00;103084.09;;;10.30;100.00
32324;BME280;25666;44.350;9.222;2023-02-17T04:01:25;103085.53;;;10.27;100.00
32324;BME280;25666;44.350;9.222;2023-02-17T04:03:51;103097.44;;;10.33;100.00
32324;BME280;25666;44.350;9.222;2023-02-17T04:06:16;103098.53;;;10.32;100.00
32324;BME280;25666;44.350;9.222;2023-02-17T04:08:42;103100.81;;;10.30;100.00
32324;BME280;25666;44.350;9.222;2023-02-17T04:11:08;103101.66;;;10.25;100.00
32324;BME280;25666;44.350;9.222;2023-02-17T04:13:35;103102.75;;;10.29;100.00
32324;BME280;25666;44.350;9.222;2023-02-17T04:16:01;103103.50;;;10.40;100.00
32324;BME280;25666;44.350;9.222;2023-02-17T04:18:29;103103.44;;;10.45;100.00
32324;BME280;25666;44.350;9.222;2023-02-17T04:20:55;103108.09;;;10.54;100.00
32324;BME280;25666;44.350;9.222;2023-02-17T04:23:20;103107.78;;;10.56;100.00
32324;BME280;25666;44.350;9.222;2023-02-17T04:25:46;103101.50;;;10.45;100.00
32324;BME280;25666;44.350;9.222;2023-02-17T04:28:13;103110.47;;;10.37;100.00
32324;BME280;25666;44.350;9.222;2023-02-17T04:30:42;103104.28;;;10.45;100.00
32324;BME280;25666;44.350;9.222;2023-02-17T04:33:08;103109.53;;;10.47;100.00
32324;BME280;25666;44.350;9.222;2023-02-17T04:35:33;103109.88;;;10.40;100.00
32324;BME280;25666;44.350;9.222;2023-02-17T04:37:58;103107.34;;;10.44;100.00
32324;BME280;25666;44.350;9.222;2023-02-17T04:40:24;103109.25;;;10.48;100.00
32324;BME280;25666;44.350;9.222;2023-02-17T04:42:49;103105.72;;;10.38;100.00
32324;BME280;25666;44.350;9.222;2023-02-17T04:45:15;103112.13;;;10.38;100.00
32324;BME280;25666;44.350;9.222;2023-02-17T04:47:40;103122.16;;;10.39;100.00
32324;BME280;25666;44.350;9.222;2023-02-17T04:50:07;103111.75;;;10.50;100.00
32324;BME280;25666;44.350;9.222;2023-02-17T04:52:33;103122.06;;;10.49;100.00
32324;BME280;25666;44.350;9.222;2023-02-17T04:54:58;103122.59;;;10.51;100.00
32324;BME280;25666;44.350;9.222;2023-02-17T04:57:24;103116.78;;;10.48;100.00
32324;BME280;25666;44.350;9.222;2023-02-17T04:59:49;103120.41;;;10.48;100.00
32324;BME280;25666;44.350;9.222;2023-02-17T05:02:15;103120.03;;;10.26;100.00
32324;BME280;25666;44.350;9.222;2023-02-17T05:04:40;103123.28;;;10.38;100.00
32324;BME280;25666;44.350;9.222;2023-02-17T05:07:06;103123.78;;;10.40;100.00
32324;BME280;25666;44.350;9.222;2023-02-17T05:09:31;103122.09;;;10.44;100.00
32324;BME280;25666;44.350;9.222;2023-02-17T05:11:57;103121.66;;;10.32;100.00
32324;BME280;25666;44.350;9.222;2023-02-17T05:14:22;103124.16;;;10.34;100.00
32324;BME280;25666;44.350;9.222;2023-02-17T05:16:48;103126.94;;;10.34;100.00
32324;BME280;25666;44.350;9.222;2023-02-17T05:19:13;103119.91;;;10.41;100.00
32324;BME280;25666;44.350;9.222;2023-02-17T05:21:38;103120.44;;;10.43;100.00
32324;BME280;25666;44.350;9.222;2023-02-17T05:24:04;103125.66;;;10.50;100.00
32324;BME280;25666;44.350;9.222;2023-02-17T05:26:30;103124.81;;;10.54;100.00
32324;BME280;25666;44.350;9.222;2023-02-17T05:28:55;103124.03;;;10.49;100.00
32324;BME280;25666;44.350;9.222;2023-02-17T05:31:21;103119.63;;;10.43;100.00
32324;BME280;25666;44.350;9.222;2023-02-17T05:33:46;103116.28;;;10.41;100.00
32324;BME280;25666;44.350;9.222;2023-02-17T05:36:12;103125.06;;;10.53;100.00
32324;BME280;25666;44.350;9.222;2023-02-17T05:38:39;103127.59;;;10.54;100.00
32324;BME280;25666;44.350;9.222;2023-02-17T05:41:04;103124.69;;;10.36;100.00
32324;BME280;25666;44.350;9.222;2023-02-17T05:43:31;103136.78;;;10.21;100.00
32324;BME280;25666;44.350;9.222;2023-02-17T05:46:01;103130.06;;;10.27;100.00
32324;BME280;25666;44.350;9.222;2023-02-17T05:48:27;103134.94;;;10.40;100.00
32324;BME280;25666;44.350;9.222;2023-02-17T05:50:52;103135.44;;;10.47;100.00
32324;BME280;25666;44.350;9.222;2023-02-17T05:53:18;103139.84;;;10.53;100.00
32324;BME280;25666;44.350;9.222;2023-02-17T05:55:43;103142.03;;;10.56;100.00
32324;BME280;25666;44.350;9.222;2023-02-17T05:58:09;103141.44;;;10.59;100.00
32324;BME280;25666;44.350;9.222;2023-02-17T06:00:34;103141.50;;;10.54;100.00
32324;BME280;25666;44.350;9.222;2023-02-17T06:03:00;103133.69;;;10.56;100.00
32324;BME280;25666;44.350;9.222;2023-02-17T06:05:25;103137.06;;;10.53;100.00
32324;BME280;25666;44.350;9.222;2023-02-17T06:07:51;103142.28;;;10.60;100.00
32324;BME280;25666;44.350;9.222;2023-02-17T06:10:16;103140.09;;;10.57;100.00
32324;BME280;25666;44.350;9.222;2023-02-17T06:12:42;103141.50;;;10.54;100.00
32324;BME280;25666;44.350;9.222;2023-02-17T06:15:07;103147.31;;;10.58;100.00
32324;BME280;25666;44.350;9.222;2023-02-17T06:17:33;103145.66;;;10.57;100.00
32324;BME280;25666;44.350;9.222;2023-02-17T06:19:58;103156.53;;;10.58;100.00
32324;BME280;25666;44.350;9.222;2023-02-17T06:22:24;103151.22;;;10.57;100.00
32324;BME280;25666;44.350;9.222;2023-02-17T06:24:49;103160.94;;;10.59;100.00
32324;BME280;25666;44.350;9.222;2023-02-17T06:27:15;103168.81;;;10.52;100.00
32324;BME280;25666;44.350;9.222;2023-02-17T06:29:41;103163.53;;;10.51;100.00
32324;BME280;25666;44.350;9.222;2023-02-17T06:32:06;103162.69;;;10.50;100.00
32324;BME280;25666;44.350;9.222;2023-02-17T06:34:32;103161.38;;;10.43;100.00
32324;BME280;25666;44.350;9.222;2023-02-17T06:36:57;103162.16;;;10.48;100.00
32324;BME280;25666;44.350;9.222;2023-02-17T06:39:22;103167.69;;;10.53;100.00
32324;BME280;25666;44.350;9.222;2023-02-17T06:41:48;103162.63;;;10.60;100.00
32324;BME280;25666;44.350;9.222;2023-02-17T06:44:14;103168.78;;;10.57;100.00
32324;BME280;25666;44.350;9.222;2023-02-17T06:46:40;103170.97;;;10.60;100.00
32324;BME280;25666;44.350;9.222;2023-02-17T06:49:06;103171.81;;;10.61;100.00
32324;BME280;25666;44.350;9.222;2023-02-17T06:51:31;103174.00;;;10.64;100.00
32324;BME280;25666;44.350;9.222;2023-02-17T06:53:57;103174.53;;;10.66;100.00
32324;BME280;25666;44.350;9.222;2023-02-17T06:56:22;103179.00;;;10.67;100.00
32324;BME280;25666;44.350;9.222;2023-02-17T06:58:48;103173.19;;;10.63;100.00
32324;BME280;25666;44.350;9.222;2023-02-17T07:01:22;103176.50;;;10.65;100.00
32324;BME280;25666;44.350;9.222;2023-02-17T07:03:48;103183.09;;;10.74;100.00
32324;BME280;25666;44.350;9.222;2023-02-17T07:06:14;103180.28;;;10.80;100.00
32324;BME280;25666;44.350;9.222;2023-02-17T07:08:39;103181.94;;;10.81;100.00
32324;BME280;25666;44.350;9.222;2023-02-17T07:11:06;103184.16;;;10.84;100.00
32324;BME280;25666;44.350;9.222;2023-02-17T07:13:32;103184.94;;;10.84;100.00
32324;BME280;25666;44.350;9.222;2023-02-17T07:15:57;103176.31;;;10.86;100.00
32324;BME280;25666;44.350;9.222;2023-02-17T07:18:23;103182.41;;;10.88;100.00
32324;BME280;25666;44.350;9.222;2023-02-17T07:20:48;103187.75;;;10.84;100.00
32324;BME280;25666;44.350;9.222;2023-02-17T07:23:14;103191.09;;;10.81;100.00
32324;BME280;25666;44.350;9.222;2023-02-17T07:25:39;103193.31;;;10.84;100.00
32324;BME280;25666;44.350;9.222;2023-02-17T07:28:05;103190.44;;;10.94;100.00
32324;BME280;25666;44.350;9.222;2023-02-17T07:30:30;103198.06;;;10.84;100.00
32324;BME280;25666;44.350;9.222;2023-02-17T07:32:56;103192.72;;;10.87;100.00
32324;BME280;25666;44.350;9.222;2023-02-17T07:35:21;103193.22;;;10.94;100.00
32324;BME280;25666;44.350;9.222;2023-02-17T07:37:47;103197.97;;;10.94;100.00
32324;BME280;25666;44.350;9.222;2023-02-17T07:40:13;103201.25;;;11.01;100.00
32324;BME280;25666;44.350;9.222;2023-02-17T07:42:38;103198.19;;;11.02;100.00
32324;BME280;25666;44.350;9.222;2023-02-17T07:45:04;103202.84;;;11.07;100.00
32324;BME280;25666;44.350;9.222;2023-02-17T07:47:31;103201.16;;;11.11;100.00
32324;BME280;25666;44.350;9.222;2023-02-17T07:49:56;103204.44;;;11.18;100.00
32324;BME280;25666;44.350;9.222;2023-02-17T07:52:22;103208.41;;;11.12;100.00
32324;BME280;25666;44.350;9.222;2023-02-17T07:54:47;103208.41;;;11.12;100.00
32324;BME280;25666;44.350;9.222;2023-02-17T07:57:13;103216.53;;;11.03;100.00
32324;BME280;25666;44.350;9.222;2023-02-17T07:59:38;103210.34;;;11.11;100.00
32324;BME280;25666;44.350;9.222;2023-02-17T08:02:04;103202.41;;;11.23;100.00
32324;BME280;25666;44.350;9.222;2023-02-17T08:04:29;103208.06;;;11.42;100.00
32324;BME280;25666;44.350;9.222;2023-02-17T08:06:56;103202.38;;;11.52;100.00
32324;BME280;25666;44.350;9.222;2023-02-17T08:09:22;103207.19;;;11.65;100.00
32324;BME280;25666;44.350;9.222;2023-02-17T08:12:14;103212.78;;;11.70;100.00
32324;BME280;25666;44.350;9.222;2023-02-17T08:14:58;103204.47;;;11.84;100.00
32324;BME280;25666;44.350;9.222;2023-02-17T08:17:24;103211.13;;;11.88;100.00
32324;BME280;25666;44.350;9.222;2023-02-17T08:19:49;103214.63;;;11.99;100.00
32324;BME280;25666;44.350;9.222;2023-02-17T08:22:15;103215.63;;;12.08;100.00
32324;BME280;25666;44.350;9.222;2023-02-17T08:24:41;103212.75;;;12.13;100.00
32324;BME280;25666;44.350;9.222;2023-02-17T08:27:07;103209.66;;;12.14;100.00
32324;BME280;25666;44.350;9.222;2023-02-17T08:29:33;103205.06;;;12.23;100.00
32324;BME280;25666;44.350;9.222;2023-02-17T08:31:58;103208.69;;;12.43;100.00
32324;BME280;25666;44.350;9.222;2023-02-17T08:34:24;103214.53;;;12.60;100.00
32324;BME280;25666;44.350;9.222;2023-02-17T08:36:49;103211.34;;;12.66;100.00
32324;BME280;25666;44.350;9.222;2023-02-17T08:39:16;103209.00;;;12.73;100.00
32324;BME280;25666;44.350;9.222;2023-02-17T08:41:42;103214.72;;;12.82;100.00
32324;BME280;25666;44.350;9.222;2023-02-17T08:44:14;103211.31;;;12.85;100.00
32324;BME280;25666;44.350;9.222;2023-02-17T08:46:40;103206.16;;;12.92;100.00
32324;BME280;25666;44.350;9.222;2023-02-17T08:49:06;103204.53;;;13.05;100.00
32324;BME280;25666;44.350;9.222;2023-02-17T08:51:33;103212.25;;;13.13;100.00
32324;BME280;25666;44.350;9.222;2023-02-17T08:53:59;103214.06;;;13.04;100.00
32324;BME280;25666;44.350;9.222;2023-02-17T08:56:26;103212.25;;;13.13;100.00
32324;BME280;25666;44.350;9.222;2023-02-17T08:58:52;103211.22;;;13.22;100.00
32324;BME280;25666;44.350;9.222;2023-02-17T09:01:18;103216.13;;;13.30;100.00
32324;BME280;25666;44.350;9.222;2023-02-17T09:03:46;103216.97;;;13.31;100.00
32324;BME280;25666;44.350;9.222;2023-02-17T09:06:12;103216.34;;;13.34;100.00
32324;BME280;25666;44.350;9.222;2023-02-17T09:08:38;103214.88;;;13.36;100.00
32324;BME280;25666;44.350;9.222;2023-02-17T09:11:05;103218.19;;;13.38;100.00
32324;BME280;25666;44.350;9.222;2023-02-17T09:13:31;103214.78;;;13.41;100.00
32324;BME280;25666;44.350;9.222;2023-02-17T09:15:57;103218.38;;;13.28;100.00
32324;BME280;25666;44.350;9.222;2023-02-17T09:18:23;103223.91;;;13.33;100.00
32324;BME280;25666;44.350;9.222;2023-02-17T09:20:48;103224.72;;;13.34;100.00
32324;BME280;25666;44.350;9.222;2023-02-17T09:23:14;103225.44;;;13.39;100.00
32324;BME280;25666;44.350;9.222;2023-02-17T09:25:40;103228.03;;;13.36;100.00
32324;BME280;25666;44.350;9.222;2023-02-17T09:28:07;103231.25;;;13.43;100.00
32324;BME280;25666;44.350;9.222;2023-02-17T09:30:32;103234.56;;;13.45;100.00
32324;BME280;25666;44.350;9.222;2023-02-17T09:32:58;103237.59;;;13.49;100.00
32324;BME280;25666;44.350;9.222;2023-02-17T09:35:24;103238.94;;;13.51;100.00
32324;BME280;25666;44.350;9.222;2023-02-17T09:37:50;103239.75;;;13.52;100.00
32324;BME280;25666;44.350;9.222;2023-02-17T09:40:42;103242.84;;;13.50;100.00
32324;BME280;25666;44.350;9.222;2023-02-17T09:43:13;103248.16;;;13.52;100.00
32324;BME280;25666;44.350;9.222;2023-02-17T09:45:40;103248.16;;;13.52;100.00
32324;BME280;25666;44.350;9.222;2023-02-17T09:48:10;103249.19;;;13.56;100.00
32324;BME280;25666;44.350;9.222;2023-02-17T09:51:01;103256.13;;;13.58;100.00
32324;BME280;25666;44.350;9.222;2023-02-17T09:53:55;103248.38;;;13.55;100.00
32324;BME280;25666;44.350;9.222;2023-02-17T09:56:30;103255.19;;;13.63;100.00
32324;BME280;25666;44.350;9.222;2023-02-17T09:58:59;103245.38;;;13.65;100.00
32324;BME280;25666;44.350;9.222;2023-02-17T10:01:31;103245.38;;;13.65;100.00
32324;BME280;25666;44.350;9.222;2023-02-17T10:04:06;103245.97;;;13.76;100.00
32324;BME280;25666;44.350;9.222;2023-02-17T10:06:41;103251.91;;;13.74;100.00
32324;BME280;25666;44.350;9.222;2023-02-17T10:09:29;103245.16;;;13.75;100.00
32324;BME280;25666;44.350;9.222;2023-02-17T10:12:04;103245.75;;;13.72;100.00
32324;BME280;25666;44.350;9.222;2023-02-17T10:14:41;103253.97;;;13.69;100.00
32324;BME280;25666;44.350;9.222;2023-02-17T10:17:14;103253.88;;;13.74;100.00
32324;BME280;25666;44.350;9.222;2023-02-17T10:19:53;103253.66;;;13.70;100.00
32324;BME280;25666;44.350;9.222;2023-02-17T10:22:22;103255.00;;;13.73;100.00
32324;BME280;25666;44.350;9.222;2023-02-17T10:24:48;103256.47;;;13.84;100.00
32324;BME280;25666;44.350;9.222;2023-02-17T10:30:14;103258.41;;;14.11;100.00
32324;BME280;25666;44.350;9.222;2023-02-17T10:32:59;103252.06;;;14.19;100.00
32324;BME280;25666;44.350;9.222;2023-02-17T10:35:44;103250.69;;;14.16;100.00
32324;BME280;25666;44.350;9.222;2023-02-17T10:38:16;103255.47;;;14.29;100.00
32324;BME280;25666;44.350;9.222;2023-02-17T10:40:45;103253.09;;;14.23;100.00
32324;BME280;25666;44.350;9.222;2023-02-17T10:43:16;103248.31;;;14.23;100.00
32324;BME280;25666;44.350;9.222;2023-02-17T10:45:45;103253.09;;;14.23;100.00
32324;BME280;25666;44.350;9.222;2023-02-17T10:48:15;103261.38;;;14.28;100.00
32324;BME280;25666;44.350;9.222;2023-02-17T10:50:43;103250.69;;;14.30;100.00
32324;BME280;25666;44.350;9.222;2023-02-17T10:53:17;103253.28;;;14.26;100.00
32324;BME280;25666;44.350;9.222;2023-02-17T10:55:52;103243.03;;;14.22;100.00
32324;BME280;25666;44.350;9.222;2023-02-17T10:58:23;103255.69;;;14.19;100.00
32324;BME280;25666;44.350;9.222;2023-02-17T11:00:53;103251.75;;;14.07;100.00
32324;BME280;25666;44.350;9.222;2023-02-17T11:03:26;103252.91;;;14.06;100.00
32324;BME280;25666;44.350;9.222;2023-02-17T11:05:59;103250.00;;;14.11;100.00
32324;BME280;25666;44.350;9.222;2023-02-17T11:08:36;103252.09;;;14.05;100.00
32324;BME280;25666;44.350;9.222;2023-02-17T11:11:05;103249.28;;;14.05;100.00
32324;BME280;25666;44.350;9.222;2023-02-17T11:14:01;103245.34;;;13.92;100.00
32324;BME280;25666;44.350;9.222;2023-02-17T11:18:59;103237.38;;;14.00;100.00
32324;BME280;25666;44.350;9.222;2023-02-17T11:21:27;103235.78;;;14.07;100.00
32324;BME280;25666;44.350;9.222;2023-02-17T11:24:11;103230.38;;;14.11;100.00
32324;BME280;25666;44.350;9.222;2023-02-17T11:26:36;103230.59;;;14.01;100.00
32324;BME280;25666;44.350;9.222;2023-02-17T11:29:15;103227.59;;;14.11;100.00
32324;BME280;25666;44.350;9.222;2023-02-17T11:31:59;103224.69;;;14.16;100.00
32324;BME280;25666;44.350;9.222;2023-02-17T11:34:30;103221.91;;;14.02;100.00
32324;BME280;25666;44.350;9.222;2023-02-17T11:37:05;103214.22;;;14.08;100.00
32324;BME280;25666;44.350;9.222;2023-02-17T11:39:40;103225.63;;;14.11;100.00
32324;BME280;25666;44.350;9.222;2023-02-17T11:44:47;103209.66;;;14.12;100.00
32324;BME280;25666;44.350;9.222;2023-02-17T11:55:34;103209.59;;;14.25;100.00
32324;BME280;25666;44.350;9.222;2023-02-17T11:58:39;103209.09;;;14.37;100.00
32324;BME280;25666;44.350;9.222;2023-02-17T12:01:48;103206.16;;;14.28;100.00
32324;BME280;25666;44.350;9.222;2023-02-17T12:12:18;103197.13;;;14.09;100.00
32324;BME280;25666;44.350;9.222;2023-02-17T12:29:10;103168.50;;;13.99;100.00
32324;BME280;25666;44.350;9.222;2023-02-17T12:34:43;103159.78;;;14.00;100.00
32324;BME280;25666;44.350;9.222;2023-02-17T12:37:21;103157.94;;;13.82;100.00
32324;BME280;25666;44.350;9.222;2023-02-17T12:39:58;103159.81;;;13.86;100.00
32324;BME280;25666;44.350;9.222;2023-02-17T12:42:31;103154.00;;;13.83;100.00
32324;BME280;25666;44.350;9.222;2023-02-17T12:45:05;103151.41;;;13.86;100.00
32324;BME280;25666;44.350;9.222;2023-02-17T12:47:51;103152.88;;;13.84;100.00
32324;BME280;25666;44.350;9.222;2023-02-17T12:50:32;103146.94;;;13.85;100.00
32324;BME280;25666;44.350;9.222;2023-02-17T12:53:02;103144.69;;;13.87;100.00
32324;BME280;25666;44.350;9.222;2023-02-17T12:55:36;103149.44;;;13.87;100.00
32324;BME280;25666;44.350;9.222;2023-02-17T12:58:11;103154.94;;;13.78;100.00
32324;BME280;25666;44.350;9.222;2023-02-17T13:00:43;103150.38;;;13.82;100.00
32324;BME280;25666;44.350;9.222;2023-02-17T13:03:10;103141.69;;;13.84;100.00
32324;BME280;25666;44.350;9.222;2023-02-17T13:05:41;103139.59;;;13.89;100.00
32324;BME280;25666;44.350;9.222;2023-02-17T13:08:22;103133.34;;;13.92;100.00
32324;BME280;25666;44.350;9.222;2023-02-17T13:11:13;103142.25;;;13.94;100.00
32324;BME280;25666;44.350;9.222;2023-02-17T13:13:49;103136.88;;;13.98;100.00
32324;BME280;25666;44.350;9.222;2023-02-17T13:16:16;103131.59;;;13.97;100.00
32324;BME280;25666;44.350;9.222;2023-02-17T13:18:47;103128.91;;;13.91;100.00
32324;BME280;25666;44.350;9.222;2023-02-17T13:21:26;103132.03;;;13.90;100.00
32324;BME280;25666;44.350;9.222;2023-02-17T13:24:32;103123.44;;;13.86;100.00
32324;BME280;25666;44.350;9.222;2023-02-17T13:27:30;103120.94;;;13.85;100.00
32324;BME280;25666;44.350;9.222;2023-02-17T13:30:23;103127.69;;;13.84;100.00
32324;BME280;25666;44.350;9.222;2023-02-17T13:32:43;103127.69;;;13.84;100.00
32324;BME280;25666;44.350;9.222;2023-02-17T13:40:02;103132.81;;;13.68;100.00
32324;BME280;25666;44.350;9.222;2023-02-17T13:42:35;103119.63;;;13.69;100.00
32324;BME280;25666;44.350;9.222;2023-02-17T13:45:10;103124.59;;;13.72;100.00
32324;BME280;25666;44.350;9.222;2023-02-17T13:47:37;103121.59;;;13.68;100.00
32324;BME280;25666;44.350;9.222;2023-02-17T13:50:04;103119.94;;;13.67;100.00
32324;BME280;25666;44.350;9.222;2023-02-17T13:52:31;103110.75;;;13.53;100.00
32324;BME280;25666;44.350;9.222;2023-02-17T13:55:02;103114.56;;;13.57;100.00
32324;BME280;25666;44.350;9.222;2023-02-17T13:57:34;103110.13;;;13.56;100.00
32324;BME280;25666;44.350;9.222;2023-02-17T14:02:45;103116.84;;;13.41;100.00
32324;BME280;25666;44.350;9.222;2023-02-17T14:05:35;103113.44;;;13.45;100.00
32324;BME280;25666;44.350;9.222;2023-02-17T14:08:11;103115.31;;;13.49;100.00